createdAt,value
2022-08-25T00:00:51.554Z,266.37
2022-08-25T00:04:55.255Z,230.70
2022-08-25T00:09:00.058Z,226.37
2022-08-25T00:13:06.919Z,183.53
2022-08-25T00:17:10.250Z,179.00
2022-08-25T00:21:14.855Z,171.57
2022-08-25T00:25:18.603Z,163.33
2022-08-25T00:29:25.944Z,161.27
2022-08-25T00:33:31.230Z,164.93
2022-08-25T00:37:35.669Z,189.60
2022-08-25T00:41:40.426Z,175.83
2022-08-25T00:45:45.107Z,196.70
2022-08-25T00:49:51.766Z,163.40
2022-08-25T00:53:55.489Z,174.63
2022-08-25T00:58:03.746Z,183.63
2022-08-25T01:02:10.216Z,168.97
2022-08-25T01:06:17.159Z,188.37
2022-08-25T01:10:22.623Z,178.43
2022-08-25T01:14:27.313Z,171.50
2022-08-25T01:18:44.631Z,175.97
2022-08-25T01:22:55.253Z,172.63
2022-08-25T01:26:59.306Z,171.10
2022-08-25T01:31:02.806Z,171.27
2022-08-25T01:35:06.914Z,173.23
2022-08-25T01:39:12.257Z,184.27
2022-08-25T01:43:23.609Z,187.27
2022-08-25T01:47:26.932Z,159.93
2022-08-25T01:51:39.003Z,186.70
2022-08-25T01:55:53.094Z,212.83
2022-08-25T01:59:57.606Z,198.57
2022-08-25T02:04:01.020Z,184.57
2022-08-25T02:08:05.890Z,180.13
2022-08-25T02:12:11.226Z,205.47
2022-08-25T02:16:20.840Z,183.60
2022-08-25T02:20:24.925Z,185.43
2022-08-25T02:24:28.357Z,182.70
2022-08-25T02:28:33.068Z,172.40
2022-08-25T02:32:36.355Z,174.43
2022-08-25T02:36:40.233Z,202.23
2022-08-25T02:40:43.630Z,174.63
2022-08-25T02:44:48.255Z,176.77
2022-08-25T02:48:53.038Z,160.57
2022-08-25T02:52:56.284Z,167.40
2022-08-25T02:56:59.708Z,169.93
2022-08-25T03:01:04.898Z,173.93
2022-08-25T03:05:09.837Z,171.97
2022-08-25T03:09:13.935Z,167.77
2022-08-25T03:13:18.113Z,177.00
2022-08-25T03:17:22.809Z,171.00
2022-08-25T03:21:26.593Z,185.37
2022-08-25T03:25:47.594Z,176.43
2022-08-25T03:29:51.661Z,171.10
2022-08-25T03:33:57.008Z,173.30
2022-08-25T03:38:00.769Z,157.73
2022-08-25T03:42:05.389Z,174.47
2022-08-25T03:46:08.851Z,180.50
2022-08-25T03:50:14.319Z,189.77
2022-08-25T03:54:19.461Z,180.43
2022-08-25T03:58:22.772Z,180.60
2022-08-25T04:02:26.132Z,168.17
2022-08-25T04:06:31.914Z,160.20
2022-08-25T04:10:35.379Z,161.60
2022-08-25T04:14:38.760Z,169.30
2022-08-25T04:18:42.670Z,182.63
2022-08-25T04:22:47.557Z,185.37
2022-08-25T04:26:52.295Z,159.63
2022-08-25T04:30:55.584Z,174.37
2022-08-25T04:34:58.861Z,182.00
2022-08-25T04:39:04.682Z,179.13
2022-08-25T04:43:08.040Z,172.57
2022-08-25T04:47:12.320Z,144.70
2022-08-25T04:51:19.192Z,149.63
2022-08-25T04:55:24.115Z,168.30
2022-08-25T04:59:29.520Z,152.37
2022-08-25T05:03:33.930Z,151.40
2022-08-25T05:07:38.270Z,144.33
2022-08-25T05:11:42.989Z,148.07
2022-08-25T05:15:54.162Z,159.33
2022-08-25T05:19:57.483Z,124.13
2022-08-25T05:24:03.111Z,124.23
2022-08-25T05:28:08.290Z,113.53
2022-08-25T05:32:11.987Z,140.80
2022-08-25T05:36:17.451Z,125.53
2022-08-25T05:40:22.401Z,119.87
2022-08-25T05:44:27.291Z,124.83
2022-08-25T05:48:30.683Z,121.90
2022-08-25T05:52:33.990Z,107.33
2022-08-25T05:56:37.262Z,100.80
2022-08-25T06:00:42.150Z,91.20
2022-08-25T06:04:45.574Z,81.73
2022-08-25T06:08:48.956Z,79.10
2022-08-25T06:12:52.337Z,69.93
2022-08-25T06:16:57.565Z,73.93
2022-08-25T06:21:01.229Z,63.23
2022-08-25T06:25:04.836Z,62.57
2022-08-25T06:29:08.256Z,77.83
2022-08-25T06:33:13.162Z,56.43
2022-08-25T06:37:16.998Z,42.53
2022-08-25T06:41:20.303Z,46.20
2022-08-25T06:45:23.580Z,29.60
2022-08-25T06:49:31.858Z,26.37
2022-08-25T06:53:36.566Z,18.37
2022-08-25T06:57:39.892Z,16.50
2022-08-25T07:01:43.547Z,16.33
2022-08-25T07:05:54.297Z,17.07
2022-08-25T07:09:57.800Z,14.60
2022-08-25T07:14:03.182Z,16.47
2022-08-25T07:18:07.173Z,13.67
2022-08-25T07:22:11.978Z,13.63
2022-08-25T07:30:42.608Z,16.63
2022-08-25T07:35:03.042Z,12.90
2022-08-25T07:39:08.010Z,16.80
2022-08-25T07:43:11.756Z,12.47
2022-08-25T07:47:16.094Z,12.50
2022-08-25T07:51:19.538Z,11.83
2022-08-25T07:55:25.511Z,11.97
2022-08-25T07:59:28.910Z,11.10
2022-08-25T08:03:50.577Z,12.63
2022-08-25T08:07:55.252Z,12.60
2022-08-25T08:12:00.507Z,13.00
2022-08-25T08:16:03.929Z,13.90
2022-08-25T08:20:15.073Z,11.53
2022-08-25T08:24:38.407Z,13.80
2022-08-25T08:28:42.959Z,14.03
2022-08-25T08:33:08.549Z,15.63
2022-08-25T08:37:10.417Z,20.40
2022-08-25T08:42:07.610Z,18.57
2022-08-25T08:46:09.224Z,16.70
2022-08-25T08:50:28.018Z,16.60
2022-08-25T08:54:39.513Z,14.60
2022-08-25T08:58:49.950Z,15.57
2022-08-25T09:03:01.894Z,16.27
2022-08-25T09:07:14.149Z,17.90
2022-08-25T09:11:30.648Z,20.10
2022-08-25T09:16:01.786Z,16.20
2022-08-25T09:20:34.988Z,16.20
2022-08-25T09:24:50.276Z,15.03
2022-08-25T09:29:02.442Z,17.40
2022-08-25T09:33:10.182Z,16.80
2022-08-25T09:37:14.913Z,14.20
2022-08-25T09:41:35.811Z,19.03
2022-08-25T09:45:44.858Z,17.67
2022-08-25T09:49:50.778Z,16.43
2022-08-25T09:53:57.811Z,15.00
2022-08-25T09:58:01.307Z,15.90
2022-08-25T10:02:25.382Z,15.40
2022-08-25T10:06:34.502Z,13.37
2022-08-25T10:10:46.395Z,15.17
2022-08-25T10:14:50.429Z,17.20
2022-08-25T10:19:07.677Z,14.60
2022-08-25T10:23:13.430Z,14.63
2022-08-25T10:27:27.419Z,13.03
2022-08-25T10:31:37.017Z,13.30
2022-08-25T10:35:56.627Z,13.87
2022-08-25T10:40:16.542Z,14.83
2022-08-25T10:44:48.345Z,13.97
2022-08-25T10:48:59.208Z,13.97
2022-08-25T10:53:19.750Z,11.57
2022-08-25T10:57:30.351Z,11.30
2022-08-25T11:02:02.511Z,12.63
2022-08-25T11:06:09.024Z,17.40
2022-08-25T11:10:15.405Z,12.23
2022-08-25T11:14:22.834Z,13.50
2022-08-25T11:18:31.880Z,13.43
2022-08-25T11:22:42.487Z,10.90
2022-08-25T11:26:57.710Z,14.73
2022-08-25T11:31:03.031Z,12.43
2022-08-25T11:35:13.522Z,10.93
2022-08-25T11:39:23.120Z,9.80
2022-08-25T11:43:42.300Z,10.60
2022-08-25T11:48:01.224Z,10.50
2022-08-25T11:52:10.362Z,8.57
2022-08-25T11:56:32.979Z,10.00
2022-08-25T12:00:42.335Z,12.90
2022-08-25T12:04:46.936Z,10.93
2022-08-25T12:09:20.233Z,10.60
2022-08-25T12:13:43.760Z,11.97
2022-08-25T12:18:08.718Z,11.67
2022-08-25T12:22:51.708Z,10.67
2022-08-25T12:27:00.954Z,12.23
2022-08-25T12:31:13.385Z,12.50
2022-08-25T12:35:39.144Z,12.67
2022-08-25T12:39:55.952Z,12.70
2022-08-25T12:44:35.056Z,12.20
2022-08-25T12:48:57.398Z,10.10
2022-08-25T12:53:13.336Z,12.87
2022-08-25T12:57:40.854Z,14.10
2022-08-25T13:02:00.064Z,9.83
2022-08-25T13:06:20.130Z,10.00
2022-08-25T13:10:33.256Z,11.37
2022-08-25T13:14:40.897Z,10.13
2022-08-25T13:18:45.517Z,10.80
2022-08-25T13:22:58.932Z,12.10
2022-08-25T13:27:06.069Z,11.80
2022-08-25T13:31:15.888Z,13.37
2022-08-25T13:35:25.565Z,10.53
2022-08-25T13:39:55.067Z,9.50
2022-08-25T13:44:01.006Z,10.93
2022-08-25T13:48:05.914Z,9.60
2022-08-25T13:52:19.086Z,9.70
2022-08-25T13:56:38.453Z,10.53
2022-08-25T14:00:48.946Z,11.67
2022-08-25T14:04:52.917Z,10.03
2022-08-25T14:09:16.541Z,8.63
2022-08-25T14:13:33.154Z,8.67
2022-08-25T14:17:39.824Z,9.50
2022-08-25T14:21:44.006Z,8.67
2022-08-25T14:25:50.371Z,10.33
2022-08-25T14:29:53.624Z,12.00
2022-08-25T14:33:59.632Z,12.60
2022-08-25T14:38:12.173Z,14.70
2022-08-25T14:42:16.934Z,13.00
2022-08-25T14:46:22.829Z,11.37
2022-08-25T14:50:26.705Z,14.80
2022-08-25T14:54:31.308Z,14.87
2022-08-25T14:58:51.582Z,12.73
2022-08-25T15:02:58.199Z,14.20
2022-08-25T15:07:22.342Z,16.50
2022-08-25T15:11:28.002Z,11.73
2022-08-25T15:15:33.928Z,10.90
2022-08-25T15:19:38.587Z,11.87
2022-08-25T15:23:44.575Z,12.07
2022-08-25T15:27:48.141Z,9.27
2022-08-25T15:31:53.238Z,8.67
2022-08-25T15:35:58.836Z,12.73
2022-08-25T15:40:02.503Z,11.23
2022-08-25T15:44:12.485Z,17.83
2022-08-25T15:48:20.332Z,13.17
2022-08-25T15:52:28.258Z,12.30
2022-08-25T15:56:34.518Z,15.40
2022-08-25T16:00:38.146Z,14.50
2022-08-25T16:04:42.839Z,20.07
2022-08-25T16:08:46.234Z,21.57
2022-08-25T16:12:49.493Z,14.90
2022-08-25T16:16:52.802Z,15.40
2022-08-25T16:20:57.732Z,13.87
2022-08-25T16:25:02.669Z,18.47
2022-08-25T16:29:06.669Z,15.17
2022-08-25T16:33:09.955Z,16.27
2022-08-25T16:37:15.007Z,21.07
2022-08-25T16:41:23.685Z,18.43
2022-08-25T16:45:27.532Z,17.57
2022-08-25T16:49:31.499Z,17.70
2022-08-25T16:53:53.698Z,21.00
2022-08-25T16:57:57.317Z,18.03
2022-08-25T17:02:02.067Z,18.87
2022-08-25T17:06:06.227Z,19.10
2022-08-25T17:10:13.342Z,19.27
2022-08-25T17:14:18.271Z,19.83
2022-08-25T17:18:22.221Z,21.73
2022-08-25T17:22:27.578Z,19.77
2022-08-25T17:26:32.378Z,21.70
2022-08-25T17:30:41.860Z,20.40
2022-08-25T17:34:45.738Z,24.53
2022-08-25T17:38:49.689Z,22.13
2022-08-25T17:42:57.087Z,24.67
2022-08-25T17:47:01.103Z,24.40
2022-08-25T17:51:06.484Z,24.53
2022-08-25T17:55:13.498Z,26.13
2022-08-25T17:59:21.501Z,21.93
2022-08-25T18:03:27.832Z,25.07
2022-08-25T18:07:33.489Z,26.33
2022-08-25T18:11:38.934Z,29.00
2022-08-25T18:15:47.951Z,27.13
2022-08-25T18:19:53.286Z,30.30
2022-08-25T18:23:57.069Z,31.30
2022-08-25T18:28:00.420Z,34.53
2022-08-25T18:32:05.587Z,36.57
2022-08-25T18:36:10.326Z,34.80
2022-08-25T18:40:26.260Z,35.10
2022-08-25T18:44:31.895Z,37.53
2022-08-25T18:48:39.943Z,43.03
2022-08-25T18:52:45.083Z,34.83
2022-08-25T18:56:50.949Z,40.10
2022-08-25T19:00:55.229Z,42.63
2022-08-25T19:05:04.750Z,44.43
2022-08-25T19:09:11.357Z,48.07
2022-08-25T19:13:14.858Z,46.17
2022-08-25T19:17:18.527Z,46.07
2022-08-25T19:21:26.053Z,55.10
2022-08-25T19:25:33.245Z,59.17
2022-08-25T19:29:38.919Z,59.00
2022-08-25T19:33:45.216Z,81.33
2022-08-25T19:37:52.098Z,76.77
2022-08-25T19:41:56.813Z,72.00
2022-08-25T19:46:01.218Z,81.80
2022-08-25T19:50:07.609Z,83.23
2022-08-25T19:54:17.011Z,79.73
2022-08-25T19:58:21.533Z,87.37
2022-08-25T20:02:28.328Z,98.93
2022-08-25T20:06:34.560Z,87.73
2022-08-25T20:10:41.622Z,110.37
2022-08-25T20:14:45.781Z,105.23
2022-08-25T20:18:50.207Z,104.77
2022-08-25T20:22:53.626Z,100.47
2022-08-25T20:26:59.505Z,115.13
2022-08-25T20:31:02.756Z,83.00
2022-08-25T20:35:09.371Z,97.60
2022-08-25T20:39:18.351Z,80.97
2022-08-25T20:43:23.434Z,110.20
2022-08-25T20:47:27.737Z,90.27
2022-08-25T20:52:09.964Z,101.10
2022-08-25T20:56:16.290Z,103.67
2022-08-25T21:00:23.637Z,117.87
2022-08-25T21:04:30.333Z,101.40
2022-08-25T21:08:34.385Z,107.90
2022-08-25T21:12:38.519Z,94.50
2022-08-25T21:16:47.216Z,115.53
2022-08-25T21:20:50.555Z,114.63
2022-08-25T21:24:55.782Z,93.73
2022-08-25T21:29:00.064Z,109.90
2022-08-25T21:33:05.184Z,109.33
2022-08-25T21:37:09.082Z,101.83
2022-08-25T21:41:15.568Z,108.33
2022-08-25T21:45:20.974Z,103.37
2022-08-25T21:49:26.483Z,123.77
2022-08-25T21:53:30.219Z,114.13
2022-08-25T21:57:36.611Z,104.97
2022-08-25T22:01:40.223Z,117.27
2022-08-25T22:05:45.698Z,99.33
2022-08-25T22:09:51.458Z,111.37
2022-08-25T22:13:56.765Z,121.20
2022-08-25T22:18:01.605Z,126.77
2022-08-25T22:22:06.938Z,123.30
2022-08-25T22:26:10.953Z,125.27
2022-08-25T22:30:14.996Z,129.13
2022-08-25T22:34:18.774Z,121.17
2022-08-25T22:38:35.390Z,127.37
2022-08-25T22:42:38.594Z,136.77
2022-08-25T22:46:43.792Z,122.67
2022-08-25T22:50:48.686Z,129.90
2022-08-25T22:54:53.854Z,135.20
2022-08-25T22:58:57.889Z,126.13
2022-08-25T23:03:01.228Z,133.63
2022-08-25T23:07:04.944Z,141.57
2022-08-25T23:11:12.813Z,126.90
2022-08-25T23:15:16.169Z,139.43
2022-08-25T23:19:20.969Z,122.30
2022-08-25T23:23:24.612Z,147.70
2022-08-25T23:27:29.244Z,135.27
2022-08-25T23:31:33.248Z,139.70
2022-08-25T23:35:36.577Z,150.97
2022-08-25T23:39:45.682Z,141.90
2022-08-25T23:43:50.741Z,146.10
2022-08-25T23:47:54.022Z,140.53
2022-08-25T23:51:57.273Z,157.00
2022-08-25T23:56:00.636Z,144.23
